Flight Track Log - Related Links

Times and Time Zones

All times are in EDT time to prevent confusion due to time zone crossing. See the DAL110 flight status page for this flight to view local times or setup timezone preferences in your user account.

Time Position Orientation Groundspeed Altitude Reporting Facility
EDT Latitude Longitude Course Direction KTS MPH feet Rate Location/Type
Tue 08:54:53 AM 33.6500 -84.4667 252° West 183 211 2,500  Level Atlanta TRACON
Tue 08:55:47 AM 33.6667 -84.5333 287° West 246 283 4,000 2,368 Climbing Atlanta TRACON
Tue 08:56:47 AM 33.6833 -84.6167 284° West 265 305 7,000 2,800 Climbing Atlanta TRACON
Tue 08:57:00 AM 33.8001 -84.4079 270° West  Level FlightAware Approximate
Tue 08:57:47 AM 33.6833 -84.7000 270° West 280 322 9,600  Level Atlanta TRACON
Tue 08:58:00 AM 33.8000 -84.5603 270° West  Level FlightAware Approximate
Tue 08:59:00 AM 33.7749 -84.7078 252° West  Level FlightAware Approximate
Tue 08:59:48 AM 33.6825 -84.9250 270° West 329 379 12,200  Level Atlanta Center
Tue 09:00:00 AM 33.7350 -84.8524 252° West  Level FlightAware Approximate
Tue 09:00:48 AM 33.6692 -85.0522 263° West 373 429 14,500  Level Atlanta Center
Tue 09:01:48 AM 33.6533 -85.1817 262° West 386 444 16,600 1,850 Climbing Atlanta Center
Tue 09:02:48 AM 33.6500 -85.3164 268° West 401 461 18,200 1,650 Climbing Atlanta Center
Tue 09:03:48 AM 33.6547 -85.4564 272° West 419 482 19,900 1,550 Climbing Atlanta Center
Tue 09:04:48 AM 33.6550 -85.5986 270° West 424 488 21,300 1,300 Climbing Atlanta Center
Tue 09:05:48 AM 33.6575 -85.7333 271° West 432 497 22,500 1,300 Climbing Atlanta Center
Tue 09:06:48 AM 33.6594 -85.8831 271° West 448 516 23,900 1,400 Climbing Atlanta Center
Tue 09:07:48 AM 33.6653 -86.0381 273° West 461 531 25,300 1,350 Climbing Atlanta Center
Tue 09:08:48 AM 33.6625 -86.2078 269° West 466 536 26,600 1,200 Climbing Atlanta Center
Tue 09:09:48 AM 33.6658 -86.3650 272° West 466 536 27,700 1,050 Climbing Atlanta Center
Tue 09:10:48 AM 33.6689 -86.5272 271° West 479 551 28,700 1,350 Climbing Atlanta Center
Tue 09:11:48 AM 33.6697 -86.6947 270° West 489 563 30,400 1,650 Climbing Atlanta Center
Tue 09:12:48 AM 33.6725 -86.8494 271° West 490 564 32,000 1,187 Climbing Atlanta Center
Tue 09:14:50 AM 33.6561 -87.1728 267° West 469 540 34,000 956 Climbing Memphis Center
Tue 09:15:50 AM 33.6494 -87.3328 267° West 469 540 34,900 750 Climbing Memphis Center
Tue 09:16:50 AM 33.6469 -87.4925 269° West 479 551 35,500 550 Climbing Memphis Center
Tue 09:17:50 AM 33.6361 -87.6528 265° West 479 551 36,000 250 Climbing Memphis Center
Tue 09:18:50 AM 33.6269 -87.8100 266° West 479 551 36,000  Level Memphis Center
Tue 09:19:50 AM 33.6153 -87.9650 265° West 479 551 36,000  Level Memphis Center
Tue 09:20:50 AM 33.6058 -88.1225 266° West 479 551 36,000  Level Memphis Center
Tue 09:21:50 AM 33.6003 -88.2847 268° West 484 557 36,000  Level Memphis Center
Tue 09:22:50 AM 33.5903 -88.4394 266° West 484 557 36,000  Level Memphis Center
Tue 09:23:50 AM 33.5800 -88.5969 266° West 479 551 36,000  Level Memphis Center
Tue 09:24:50 AM 33.5694 -88.7392 265° West 479 551 36,000  Level Memphis Center
Tue 09:25:50 AM 33.5608 -88.8989 266° West 479 551 36,000  Level Memphis Center
Tue 09:26:50 AM 33.5500 -89.0561 265° West 479 551 36,000  Level Memphis Center
Tue 09:27:50 AM 33.5414 -89.2158 266° West 479 551 36,000  Level Memphis Center
Tue 09:28:50 AM 33.5300 -89.3753 265° West 479 551 36,000  Level Memphis Center
Tue 09:29:50 AM 33.5208 -89.5325 266° West 479 551 36,000  Level Memphis Center
Tue 09:30:50 AM 33.5072 -89.6919 264° West 479 551 36,000  Level Memphis Center
Tue 09:31:50 AM 33.4956 -89.8514 265° West 479 551 36,000  Level Memphis Center
Tue 09:32:50 AM 33.4833 -90.0086 265° West 479 551 36,000  Level Memphis Center
Tue 09:33:50 AM 33.4733 -90.1631 266° West 479 551 36,000  Level Memphis Center
Tue 09:34:50 AM 33.4528 -90.3372 262° West 485 558 36,000  Level Memphis Center
Tue 09:35:50 AM 33.4256 -90.4942 258° West 480 552 36,000  Level Memphis Center
Tue 09:36:50 AM 33.3961 -90.6458 257° West 480 552 36,000  Level Memphis Center
Tue 09:37:50 AM 33.3664 -90.8025 257° West 485 558 36,000  Level Memphis Center
Tue 09:38:50 AM 33.3386 -90.9564 258° West 485 558 36,000  Level Memphis Center
Tue 09:39:50 AM 33.3083 -91.1153 257° West 485 558 36,000  Level Memphis Center
Tue 09:40:50 AM 33.2803 -91.2667 258° West 485 558 36,000  Level Memphis Center
Tue 09:42:41 AM 33.2331 -91.5528 259° West 492 566 36,000  Level Fort Worth Center
Tue 09:43:41 AM 33.2028 -91.7064 257° West 484 557 36,000  Level Fort Worth Center
Tue 09:44:41 AM 33.1719 -91.8597 257° West 484 557 36,000  Level Fort Worth Center
Tue 09:45:41 AM 33.1411 -92.0153 257° West 484 557 36,000  Level Fort Worth Center
Tue 09:46:41 AM 33.1081 -92.1711 256° West 478 550 36,000  Level Fort Worth Center
Tue 09:47:41 AM 33.0789 -92.3239 257° West 478 550 36,000  Level Fort Worth Center
Tue 09:48:41 AM 33.0561 -92.4814 260° West 478 550 36,000  Level Fort Worth Center
Tue 09:49:41 AM 33.0456 -92.6431 266° West 478 550 36,000  Level Fort Worth Center
Tue 09:50:41 AM 33.0389 -92.8019 267° West 483 556 36,000  Level Fort Worth Center
Tue 09:51:41 AM 33.0300 -92.9608 266° West 483 556 36,000  Level Fort Worth Center
Tue 09:52:41 AM 33.0231 -93.1175 267° West 483 556 36,000  Level Fort Worth Center
Tue 09:53:41 AM 33.0139 -93.2764 266° West 483 556 36,000  Level Fort Worth Center
Tue 09:54:41 AM 33.0042 -93.4353 266° West 483 556 36,000  Level Fort Worth Center
Tue 09:55:41 AM 32.9944 -93.5917 266° West 483 556 36,000  Level Fort Worth Center
Tue 09:56:41 AM 32.9847 -93.7556 266° West 483 556 36,000  Level Fort Worth Center
Tue 09:57:41 AM 32.9742 -93.8972 265° West 483 556 36,000  Level Fort Worth Center
Tue 09:58:41 AM 32.9661 -94.0558 267° West 483 556 36,000  Level Fort Worth Center
Tue 09:59:41 AM 32.9578 -94.2147 266° West 483 556 36,000  Level Fort Worth Center
Tue 10:00:41 AM 32.9489 -94.3711 266° West 483 556 36,000  Level Fort Worth Center
Tue 10:01:41 AM 32.9381 -94.5297 265° West 483 556 36,000  Level Fort Worth Center
Tue 10:02:41 AM 32.9269 -94.6886 265° West 483 556 36,000  Level Fort Worth Center
Tue 10:03:41 AM 32.9156 -94.8422 265° West 478 550 36,000  Level Fort Worth Center
Tue 10:04:41 AM 32.9064 -95.0033 266° West 483 556 36,000  Level Fort Worth Center
Tue 10:05:41 AM 32.8925 -95.1619 264° West 483 556 36,000  Level Fort Worth Center
Tue 10:06:41 AM 32.8850 -95.3331 267° West 483 556 36,000  Level Fort Worth Center
Tue 10:07:41 AM 32.8708 -95.4917 264° West 483 556 36,000  Level Fort Worth Center
Tue 10:08:41 AM 32.8628 -95.6475 267° West 483 556 36,000  Level Fort Worth Center
Tue 10:09:41 AM 32.8503 -95.8086 265° West 483 556 36,000  Level Fort Worth Center
Tue 10:10:41 AM 32.8397 -95.9669 266° West 483 556 36,000  Level Fort Worth Center
Tue 10:11:41 AM 32.8267 -96.1206 264° West 483 556 36,000  Level Fort Worth Center
Tue 10:12:41 AM 32.8136 -96.2764 264° West 483 556 36,000  Level Fort Worth Center
Tue 10:13:41 AM 32.8025 -96.4297 265° West 483 556 36,000  Level Fort Worth Center
Tue 10:14:41 AM 32.7911 -96.5856 265° West 483 556 36,000  Level Fort Worth Center
Tue 10:15:41 AM 32.7772 -96.7389 264° West 477 549 36,000  Level Fort Worth Center
Tue 10:16:41 AM 32.7656 -96.8922 265° West 477 549 36,000  Level Fort Worth Center
Tue 10:17:41 AM 32.7494 -97.0453 263° West 477 549 36,000  Level Fort Worth Center
Tue 10:18:41 AM 32.7331 -97.2036 263° West 482 555 36,000  Level Fort Worth Center
Tue 10:19:41 AM 32.7228 -97.3442 265° West 482 555 36,000  Level Fort Worth Center
Tue 10:20:41 AM 32.7144 -97.4997 266° West 482 555 36,000  Level Fort Worth Center
Tue 10:21:41 AM 32.7078 -97.6553 267° West 477 549 36,000  Level Fort Worth Center
Tue 10:22:41 AM 32.7011 -97.8083 267° West 477 549 36,000  Level Fort Worth Center
Tue 10:23:41 AM 32.6903 -97.9639 265° West 477 549 36,000  Level Fort Worth Center
Tue 10:24:41 AM 32.6853 -98.1169 268° West 477 549 36,000  Level Fort Worth Center
Tue 10:25:41 AM 32.6758 -98.2722 266° West 477 549 36,000  Level Fort Worth Center
Tue 10:26:41 AM 32.6664 -98.4278 266° West 477 549 36,000  Level Fort Worth Center
Tue 10:27:41 AM 32.6567 -98.5756 266° West 472 543 36,000  Level Fort Worth Center
Tue 10:28:41 AM 32.6469 -98.7286 266° West 472 543 36,000  Level Fort Worth Center
Tue 10:29:41 AM 32.6369 -98.8836 266° West 472 543 36,000  Level Fort Worth Center
Tue 10:30:41 AM 32.6264 -99.0414 266° West 472 543 36,000  Level Fort Worth Center
Tue 10:31:41 AM 32.6181 -99.1992 266° West 477 549 36,000  Level Fort Worth Center
Tue 10:32:41 AM 32.6075 -99.3542 265° West 477 549 36,000  Level Fort Worth Center
Tue 10:33:41 AM 32.5944 -99.5094 264° West 477 549 36,000  Level Fort Worth Center
Tue 10:34:41 AM 32.5814 -99.6644 264° West 477 549 36,000  Level Fort Worth Center
Tue 10:35:41 AM 32.5681 -99.8217 264° West 477 549 36,000  Level Fort Worth Center
Tue 10:36:41 AM 32.5581 -100.0014 266° West 488 562 36,000  Level Fort Worth Center
Tue 10:37:41 AM 32.5486 -100.1589 266° West 488 562 36,000  Level Fort Worth Center
Tue 10:38:41 AM 32.5389 -100.3139 266° West 483 556 36,000  Level Fort Worth Center
Tue 10:39:41 AM 32.5267 -100.4711 265° West 478 550 36,000  Level Fort Worth Center
Tue 10:40:41 AM 32.5144 -100.6283 265° West 478 550 36,000  Level Fort Worth Center
Tue 10:41:41 AM 32.5039 -100.7881 266° West 478 550 36,000  Level Fort Worth Center
Tue 10:42:41 AM 32.4894 -100.9378 264° West 478 550 36,000  Level Fort Worth Center
Tue 10:43:41 AM 32.4764 -101.0997 265° West 478 550 36,000  Level Fort Worth Center
Tue 10:44:41 AM 32.4636 -101.2544 264° West 478 550 36,000  Level Fort Worth Center
Tue 10:45:41 AM 32.4525 -101.4089 265° West 478 550 36,000  Level Fort Worth Center
Tue 10:46:41 AM 32.4389 -101.5633 264° West 478 550 36,000  Level Fort Worth Center
Tue 10:47:41 AM 32.4253 -101.7203 264° West 478 550 36,000  Level Fort Worth Center
Tue 10:48:41 AM 32.4117 -101.8722 264° West 478 550 36,000  Level Fort Worth Center
Tue 10:49:41 AM 32.3978 -102.0289 264° West 478 550 36,000  Level Fort Worth Center
Tue 10:50:41 AM 32.3836 -102.1856 264° West 478 550 36,000  Level Fort Worth Center
Tue 10:51:41 AM 32.3669 -102.3422 263° West 478 550 36,000  Level Fort Worth Center
Tue 10:52:41 AM 32.3558 -102.4694 264° West 484 557 36,000  Level Fort Worth Center
Tue 10:53:41 AM 32.3422 -102.6431 265° West 484 557 36,000  Level Fort Worth Center
Tue 10:54:41 AM 32.3294 -102.7972 264° West 479 551 36,000  Level Fort Worth Center
Tue 10:55:41 AM 32.3144 -102.9536 264° West 479 551 36,000  Level Fort Worth Center
Tue 10:56:41 AM 32.2992 -103.1100 263° West 479 551 36,000  Level Fort Worth Center
Tue 10:57:12 AM 32.2903 -103.1928 263° West 478 550 36,000  Level Albuquerque Center
Tue 10:58:14 AM 32.2744 -103.3486 263° West 480 552 36,000  Level Albuquerque Center
Tue 10:59:16 AM 32.2583 -103.5056 263° West 480 552 36,000  Level Albuquerque Center
Tue 11:00:18 AM 32.2428 -103.6608 263° West 479 551 36,000  Level Albuquerque Center
Tue 11:01:20 AM 32.2272 -103.8494 264° West 481 554 36,000  Level Albuquerque Center
Tue 11:02:22 AM 32.2100 -104.0050 263° West 480 552 36,000  Level Albuquerque Center
Tue 11:03:24 AM 32.1953 -104.1442 263° West 476 548 36,000  Level Albuquerque Center
Tue 11:04:26 AM 32.1753 -104.3297 263° West 476 548 36,000  Level Albuquerque Center
Tue 11:05:28 AM 32.1589 -104.4850 263° West 478 550 36,000  Level Albuquerque Center
Tue 11:06:30 AM 32.1419 -104.6406 263° West 479 551 36,000  Level Albuquerque Center
Tue 11:07:32 AM 32.1247 -104.7947 263° West 479 551 36,000  Level Albuquerque Center
Tue 11:08:34 AM 32.1072 -104.9503 262° West 481 554 36,000  Level Albuquerque Center
Tue 11:09:36 AM 32.0903 -105.1072 263° West 483 556 36,000  Level Albuquerque Center
Tue 11:10:39 AM 32.0675 -105.2950 262° West 485 558 36,000  Level Albuquerque Center
Tue 11:11:41 AM 32.0500 -105.4486 262° West 481 554 36,000  Level Albuquerque Center
Tue 11:12:43 AM 32.0314 -105.6044 262° West 483 556 36,000  Level Albuquerque Center
Tue 11:13:45 AM 32.0133 -105.7597 262° West 483 556 36,000  Level Albuquerque Center
Tue 11:14:47 AM 31.9950 -105.9156 262° West 483 556 36,000  Level Albuquerque Center
Tue 11:15:49 AM 31.9769 -106.0747 262° West 483 556 36,000  Level Albuquerque Center
Tue 11:16:51 AM 31.9564 -106.2625 263° West 484 557 36,000  Level Albuquerque Center
Tue 11:17:53 AM 31.9697 -106.4206 276° West 487 560 36,000  Level Albuquerque Center
Tue 11:18:55 AM 31.9886 -106.5764 278° West 482 555 36,000  Level Albuquerque Center
Tue 11:19:57 AM 32.0067 -106.7311 278° West 477 549 36,000  Level Albuquerque Center
Tue 11:20:59 AM 32.0239 -106.8861 278° West 475 547 36,000  Level Albuquerque Center
Tue 11:22:01 AM 32.0408 -107.0408 277° West 475 547 36,000  Level Albuquerque Center
Tue 11:23:03 AM 32.0581 -107.1956 278° West 473 544 36,000  Level Albuquerque Center
Tue 11:24:05 AM 32.0778 -107.3806 277° West 471 542 36,000  Level Albuquerque Center
Tue 11:25:07 AM 32.0942 -107.5356 277° West 472 543 36,000  Level Albuquerque Center
Tue 11:26:09 AM 32.1106 -107.6889 277° West 472 543 36,000  Level Albuquerque Center
Tue 11:27:11 AM 32.1269 -107.8442 277° West 474 545 36,000  Level Albuquerque Center
Tue 11:28:13 AM 32.1431 -107.9967 277° West 470 541 36,000  Level Albuquerque Center
Tue 11:29:15 AM 32.1589 -108.1508 277° West 472 543 36,000  Level Albuquerque Center
Tue 11:30:17 AM 32.1756 -108.3056 277° West 474 545 36,000  Level Albuquerque Center
Tue 11:31:19 AM 32.1917 -108.4900 276° West 472 543 36,000  Level Albuquerque Center
Tue 11:32:21 AM 32.2069 -108.6439 277° West 471 542 36,000  Level Albuquerque Center
Tue 11:33:24 AM 32.2250 -108.7981 278° West 474 545 36,000  Level Albuquerque Center
Tue 11:34:26 AM 32.2428 -108.9544 278° West 481 554 36,000  Level Albuquerque Center
Tue 11:35:28 AM 32.2561 -109.1086 276° West 475 547 36,000  Level Albuquerque Center
Tue 11:36:30 AM 32.2728 -109.2633 277° West 474 545 36,000  Level Albuquerque Center
Tue 11:37:32 AM 32.3303 -109.4364 292° West 471 542 36,000  Level Albuquerque Center
Tue 11:38:34 AM 32.3811 -109.5792 293° West 471 542 36,000  Level Albuquerque Center
Tue 11:39:36 AM 32.4322 -109.7206 293° West 469 540 36,000  Level Albuquerque Center
Tue 11:40:38 AM 32.4858 -109.8761 292° West 466 536 36,000  Level Albuquerque Center
Tue 11:41:40 AM 32.5339 -110.0172 292° West 463 533 36,000  Level Albuquerque Center
Tue 11:42:42 AM 32.5814 -110.1572 292° West 461 531 36,000  Level Albuquerque Center
Tue 11:43:44 AM 32.6300 -110.2967 293° West 458 527 36,000  Level Albuquerque Center
Tue 11:44:46 AM 32.6761 -110.4353 292° West 454 522 36,000  Level Albuquerque Center
Tue 11:45:48 AM 32.7233 -110.5764 292° West 457 526 36,000  Level Albuquerque Center
Tue 11:46:50 AM 32.7800 -110.7447 292° West 458 527 36,000  Level Albuquerque Center
Tue 11:47:52 AM 32.8275 -110.8856 292° West 459 528 36,000  Level Albuquerque Center
Tue 11:48:54 AM 32.8742 -111.0269 291° West 460 529 36,000  Level Albuquerque Center
Tue 11:49:56 AM 32.9214 -111.1683 292° West 459 528 36,000  Level Albuquerque Center
Tue 11:50:58 AM 32.9689 -111.3089 292° West 458 527 36,000  Level Albuquerque Center
Tue 11:52:00 AM 33.0147 -111.4525 291° West 463 533 36,000  Level Albuquerque Center
Tue 11:53:02 AM 33.0706 -111.6247 291° West 463 533 36,000  Level Albuquerque Center
Tue 11:54:05 AM 33.1175 -111.7675 291° West 462 532 36,000  Level Albuquerque Center
Tue 11:55:07 AM 33.1622 -111.9111 290° West 461 531 36,000  Level Albuquerque Center
Tue 11:56:09 AM 33.2103 -112.0567 292° West 467 537 36,000  Level Albuquerque Center
Tue 11:57:11 AM 33.2544 -112.1992 290° West 451 519 36,000  Level Albuquerque Center
Tue 11:58:13 AM 33.3014 -112.3447 291° West 470 541 36,000  Level Albuquerque Center
Tue 11:59:15 AM 33.3472 -112.4889 291° West 464 534 36,000  Level Albuquerque Center
Tue 12:00:17 PM 33.4036 -112.6619 291° West 462 532 36,000  Level Albuquerque Center
Tue 12:01:19 PM 33.4483 -112.8056 291° West 462 532 36,000  Level Albuquerque Center
Tue 12:02:21 PM 33.4961 -112.9489 292° West 464 534 36,000  Level Albuquerque Center
Tue 12:03:23 PM 33.5486 -113.0903 294° West 466 536 36,000  Level Albuquerque Center
Tue 12:04:25 PM 33.5997 -113.2314 294° West 466 536 36,000  Level Albuquerque Center
Tue 12:05:28 PM 33.6500 -113.3764 293° West 465 535 36,000  Level Albuquerque Center
Tue 12:06:30 PM 33.7111 -113.5478 293° West 467 537 36,000  Level Albuquerque Center
Tue 12:07:32 PM 33.7614 -113.6925 293° West 468 539 36,000  Level Albuquerque Center
Tue 12:08:34 PM 33.8117 -113.8364 293° West 468 539 36,000  Level Albuquerque Center
Tue 12:09:36 PM 33.8544 -113.9831 289° West 465 535 36,000  Level Albuquerque Center
Tue 12:10:38 PM 33.8747 -114.1339 279° West 459 528 36,000  Level Albuquerque Center
Tue 12:11:26 PM 33.8947 -114.2556 281° West 459 528 36,000  Level Los Angeles Center
Tue 12:12:28 PM 33.9172 -114.4047 280° West 457 526 36,000  Level Los Angeles Center
Tue 12:13:30 PM 33.9439 -114.5842 280° West 456 525 36,000  Level Los Angeles Center
Tue 12:14:32 PM 33.9653 -114.7314 280° West 451 519 36,000  Level Los Angeles Center
Tue 12:15:46 PM 33.9878 -114.8808 280° West 454 522 36,000  Level Los Angeles Center
Tue 12:16:49 PM 34.0139 -115.0569 280° West 448 516 36,000  Level Los Angeles Center
Tue 12:17:51 PM 34.0342 -115.2058 279° West 452 520 36,000  Level Los Angeles Center
Tue 12:18:53 PM 34.0592 -115.3836 280° West 452 520 36,000  Level Los Angeles Center
Tue 12:19:55 PM 34.0814 -115.5353 280° West 460 529 36,000  Level Los Angeles Center
Tue 12:20:57 PM 34.1019 -115.6881 279° West 464 534 36,000  Level Los Angeles Center
Tue 12:21:59 PM 34.1025 -115.8411 270° West 463 533 36,000 -339 Level Los Angeles Center
Tue 12:23:01 PM 34.0797 -115.9867 259° West 450 518 35,300 -1,210 Descending Los Angeles Center
Tue 12:24:03 PM 34.0525 -116.1658 260° West 449 517 33,500 -2,516 Descending Los Angeles Center
Tue 12:25:05 PM 34.0294 -116.3214 260° West 460 529 30,100 -3,339 Descending Los Angeles Center
Tue 12:26:07 PM 34.0067 -116.4803 260° West 473 544 26,600 -2,976 Descending Los Angeles Center
Tue 12:27:10 PM 33.9931 -116.6394 264° West 479 551 23,900 -2,448 Descending Los Angeles Center
Tue 12:28:12 PM 33.9803 -116.7911 264° West 467 537 21,500 -2,177 Descending Los Angeles Center
Tue 12:29:14 PM 33.9681 -116.9347 264° West 449 517 19,400 -2,263 Descending Los Angeles Center
Tue 12:30:06 PM 33.9667 -117.0667 269° West 368 423 17,200 -1,286 Descending Southern California TRACON
Tue 12:31:06 PM 33.9500 -117.1667 259° West 334 384 17,000 -650 Descending Southern California TRACON
Tue 12:32:06 PM 33.9333 -117.2833 260° West 313 360 15,900 -1,250 Descending Southern California TRACON
Tue 12:33:06 PM 33.9333 -117.3833 270° West 300 345 14,500 -1,400 Descending Southern California TRACON
Tue 12:34:06 PM 33.9667 -117.4667 296° West 300 345 13,100 -1,388 Descending Southern California TRACON
Tue 12:35:07 PM 34.0000 -117.5667 292° West 291 335 11,700 -1,388 Descending Southern California TRACON
Tue 12:36:07 PM 34.0167 -117.6500 284° West 299 344 10,300 -1,200 Descending Southern California TRACON
Tue 12:37:07 PM 34.0000 -117.7500 259° West 257 296 9,300 -1,100 Descending Southern California TRACON
Tue 12:38:07 PM 34.0000 -117.8333 270° West 268 308 8,100 -1,109 Descending Southern California TRACON
Tue 12:39:06 PM 33.9833 -117.9167 256° West 246 283 7,100 -1,050 Descending Southern California TRACON
Tue 12:40:07 PM 33.9833 -118.0000 270° West 239 275 6,000 -992 Descending Southern California TRACON
Tue 12:41:07 PM 33.9667 -118.0667 253° West 235 270 5,100 -1,050 Descending Southern California TRACON
Tue 12:42:07 PM 33.9667 -118.1500 270° West 221 254 3,900 -1,149 Descending Southern California TRACON
Tue 12:42:41 PM 33.9567 -118.1886 253° West 218 251 3,300 -1,188 Descending Los Angeles Center
Tue 12:43:43 PM 33.9506 -118.2617 264° West 205 236 2,000 -1,056 Descending Los Angeles Center
Tue 12:44:46 PM 33.9447 -118.3206 263° West 184 212 1,100 -768 Descending Los Angeles Center
Tue 12:45:48 PM 33.9394 -118.3700 263° West 141 162 400 -484 Descending Los Angeles Center
Tue 12:46:50 PM 33.9364 -118.4158 265° West 139 160 100 -290 Descending Los Angeles Center
Tue 12:48:00 PM 33.9333 -118.4000 270° West  Level FlightAware Approximate

Login

Don't have an account? Register now (free) for customized features, flight alerts, and more!